< Typhoon 202007 2020 Season Typhoon 202009 >
Typhoon 202008 (BAVI)
General InformationDetailed Track InformationTrack Information on Google MapsForecast History on Google MapsAccess Analytics MapList of All Images || NewsDisaster Info.WeblogTrackbackTyphoon FrontTwiphoonTyphoon Now!Typhoon ImaginationJMA Disaster Info. XMLResourceGoogle EarthGE AnimationAtom FeedGeoJSON
Detalied Best Track Wind (Time Zone = UTC)
Year Month Day Hour Lat. Long. Wind (kt) Gust (kt) Direc. of Major Storm Axis Radius of Major Storm Axis (nm) Radius of Minor Storm Axis (nm) Direc. of Major Gale Axis Radius of Major Gale Axis (nm) Radius of Minor Gale Axis (nm) Image
2020 8 21 15 22.0 123.7 30 45 - - - - - - Image
2020 8 21 18 22.3 123.5 30 45 - - - - - - Image
2020 8 21 21 23.2 122.9 30 45 - - - - - - Image
2020 8 22 00 23.6 122.6 35 50 - - - SE 120 50 Image
2020 8 22 03 23.9 122.8 35 50 - - - SE 150 50 Image
2020 8 22 06 24.3 123.5 45 65 - - - SE 150 60 Image
2020 8 22 09 24.9 123.8 55 80 SE 40 20 E 180 90 Image
2020 8 22 12 25.4 123.8 55 80 E 50 40 E 180 90 Image
2020 8 22 15 25.6 123.5 55 80 E 50 40 E 180 90 Image
2020 8 22 18 25.6 123.6 55 80 E 50 40 E 180 90 Image
2020 8 22 21 26.0 123.8 55 80 E 50 40 E 180 90 Image
2020 8 23 00 26.3 123.9 55 80 E 50 40 E 180 90 Image
2020 8 23 03 26.5 124.0 55 80 symmetric 40 40 SE 180 90 Image
2020 8 23 06 26.6 124.3 55 80 symmetric 40 40 S 180 120 Image
2020 8 23 09 26.7 124.6 55 80 symmetric 40 40 E 150 120 Image
2020 8 23 12 27.0 124.9 55 80 symmetric 40 40 E 150 120 Image
2020 8 23 15 27.0 125.2 55 80 symmetric 40 40 SE 210 150 Image
2020 8 23 18 27.1 125.6 60 85 symmetric 50 50 SE 210 150 Image
2020 8 23 21 27.1 126.1 60 85 symmetric 50 50 SE 210 150 Image
2020 8 24 00 27.2 126.2 60 85 symmetric 60 60 E 210 150 Image
2020 8 24 03 27.4 126.4 65 95 SE 80 60 E 210 150 Image
2020 8 24 06 27.8 126.5 65 95 SE 80 60 E 210 150 Image
2020 8 24 09 28.2 126.5 65 95 SE 80 60 E 210 150 Image
2020 8 24 12 28.4 126.3 70 100 SE 80 60 E 210 150 Image
2020 8 24 15 28.5 126.2 70 100 SE 80 60 E 210 150 Image
2020 8 24 18 28.6 126.0 75 105 E 90 70 E 210 150 Image
2020 8 24 21 28.8 125.9 75 105 E 90 70 E 210 150 Image
2020 8 25 00 29.1 125.8 75 105 E 90 70 E 210 150 Image
2020 8 25 03 29.5 125.6 75 105 E 90 70 E 150 120 Image
2020 8 25 06 29.8 125.5 80 115 symmetric 90 90 E 150 120 Image
2020 8 25 09 30.2 125.4 80 115 symmetric 90 90 E 150 120 Image
2020 8 25 12 30.6 125.2 80 115 symmetric 90 90 E 150 120 Image
2020 8 25 15 30.9 124.9 80 115 symmetric 90 90 E 150 120 Image
2020 8 25 18 31.4 124.8 80 115 symmetric 90 90 E 210 120 Image
2020 8 25 21 31.7 124.7 80 115 symmetric 90 90 E 210 120 Image
2020 8 26 00 32.3 124.5 85 120 E 100 80 E 210 120 Image
2020 8 26 03 32.8 124.4 85 120 E 90 60 E 210 120 Image
2020 8 26 06 33.5 124.3 85 120 E 90 60 E 210 120 Image
2020 8 26 09 34.3 124.3 85 120 E 90 60 E 210 120 Image
2020 8 26 12 35.0 124.6 85 120 E 90 60 E 210 120 Image
2020 8 26 15 36.0 124.8 80 115 E 90 60 E 210 150 Image
2020 8 26 18 36.9 125.3 70 100 E 90 60 E 210 150 Image
2020 8 26 21 37.6 125.1 65 95 symmetric 60 60 E 210 150 Image
2020 8 27 00 39.0 125.4 60 85 symmetric 50 50 E 210 150 Image
2020 8 27 03 40.1 125.1 50 70 - - - E 210 150 Image
2020 8 27 06 42.0 125.0 0 0 - - - - - - Image
Japan Meteorological Agency Best Track Data | Correction Date : 2020-08-27
< Typhoon 202007 2020 Season Typhoon 202009 >

Help